Time;durP1;ratioP1;P1;durP2;ratioP2;P2;SDS_P1;SDS_P2;PMS_P1;PMS_P2;Temp;Humidity;BMP_temperature;BMP_pressure;BME280_temperature;BME280_humidity;BME280_pressure;Samples;Min_cycle;Max_cycle;Signal;HPM_P1;HPM_P2
2021/11/08 00:01:51;;;;;;;20.88;3.58;;;6.70;85.50;;;;;;5013314;28;20060;-78
2021/11/08 00:04:19;;;;;;;19.52;3.10;;;6.70;85.70;;;;;;5026619;28;20050;-80
2021/11/08 00:06:50;;;;;;;19.95;3.78;;;6.70;85.60;;;;;;5028708;28;20049;-79
2021/11/08 00:09:18;;;;;;;20.13;3.15;;;6.60;85.50;;;;;;5028849;28;20049;-79
2021/11/08 00:11:46;;;;;;;17.92;2.90;;;6.60;85.60;;;;;;5013734;28;20397;-80
2021/11/08 00:14:18;;;;;;;19.95;3.92;;;6.50;85.70;;;;;;5013488;28;20423;-80
2021/11/08 00:22:03;;;;;;;18.85;2.95;;;6.50;86.10;;;;;;5003290;28;20039;-79
2021/11/08 00:24:32;;;;;;;28.23;3.67;;;6.40;85.90;;;;;;5013544;28;20402;-79
2021/11/08 00:27:01;;;;;;;21.75;3.40;;;6.30;85.90;;;;;;5010885;28;20046;-80
2021/11/08 00:29:30;;;;;;;19.85;3.33;;;6.30;86.00;;;;;;5012442;28;20049;-80
2021/11/08 00:32:01;;;;;;;20.92;3.50;;;6.30;86.20;;;;;;5013251;28;20041;-79
2021/11/08 00:34:29;;;;;;;13.20;2.75;;;6.30;86.30;;;;;;5012913;28;20522;-79
2021/11/08 00:36:56;;;;;;;21.67;3.03;;;6.40;86.20;;;;;;5011995;28;20503;-79
2021/11/08 00:39:25;;;;;;;20.70;3.40;;;6.50;86.20;;;;;;5001232;28;20057;-79
2021/11/08 00:41:53;;;;;;;19.90;3.03;;;6.60;85.90;;;;;;5003567;28;20068;-79
2021/11/08 00:44:21;;;;;;;15.07;3.42;;;6.60;85.80;;;;;;5018864;28;20049;-79
2021/11/08 00:46:48;;;;;;;15.95;3.65;;;6.70;85.70;;;;;;5001123;28;20042;-79
2021/11/08 00:49:16;;;;;;;16.58;3.83;;;6.80;85.50;;;;;;5012917;28;20038;-79
2021/11/08 00:51:45;;;;;;;19.77;4.05;;;6.80;85.20;;;;;;5027237;28;20407;-79
2021/11/08 00:54:15;;;;;;;16.20;3.50;;;6.90;85.10;;;;;;5010148;28;20053;-79
2021/11/08 00:56:47;;;;;;;16.00;3.05;;;6.90;85.00;;;;;;4995958;28;20419;-78
2021/11/08 00:59:16;;;;;;;19.83;3.50;;;7.00;84.90;;;;;;5014177;28;20046;-78
2021/11/08 01:01:47;;;;;;;19.83;3.45;;;6.90;84.80;;;;;;5012924;28;20046;-79
2021/11/08 01:04:20;;;;;;;20.70;3.38;;;7.00;84.80;;;;;;5012023;28;20064;-80
2021/11/08 01:06:50;;;;;;;12.07;3.10;;;7.00;84.70;;;;;;5009858;28;20415;-78
2021/11/08 01:09:18;;;;;;;18.00;3.83;;;7.00;84.50;;;;;;5001334;28;20057;-79
2021/11/08 01:11:46;;;;;;;22.17;3.75;;;7.00;84.40;;;;;;5012645;28;20038;-78
2021/11/08 01:14:13;;;;;;;15.05;3.20;;;7.00;84.30;;;;;;5011643;28;20062;-79
2021/11/08 01:16:41;;;;;;;16.17;3.40;;;7.10;84.40;;;;;;5012833;28;20486;-79
2021/11/08 01:19:09;;;;;;;18.30;3.95;;;7.10;84.30;;;;;;5002181;28;20050;-79
2021/11/08 01:21:37;;;;;;;17.85;2.97;;;7.00;84.20;;;;;;5002398;28;20053;-79
2021/11/08 01:24:05;;;;;;;16.27;3.08;;;7.10;84.20;;;;;;5002366;28;20053;-79
2021/11/08 01:26:33;;;;;;;16.33;2.72;;;7.10;84.00;;;;;;5001514;28;20053;-79
2021/11/08 01:29:00;;;;;;;15.20;2.63;;;7.10;84.00;;;;;;5012225;28;20046;-79
2021/11/08 01:31:29;;;;;;;10.82;2.80;;;7.10;83.80;;;;;;5012159;28;20056;-79
2021/11/08 01:33:57;;;;;;;27.40;3.55;;;7.10;83.60;;;;;;4997966;28;20756;-79
2021/11/08 01:36:50;;;;;;;15.63;2.78;;;7.00;83.50;;;;;;4991061;28;20046;-80
2021/11/08 01:39:24;;;;;;;16.77;3.03;;;7.00;83.50;;;;;;4998946;28;20047;-80
2021/11/08 01:41:52;;;;;;;12.07;2.70;;;7.00;83.40;;;;;;5011260;28;20042;-80
2021/11/08 01:44:20;;;;;;;15.07;2.70;;;7.00;83.50;;;;;;5002252;28;20042;-79
2021/11/08 01:46:47;;;;;;;16.00;2.70;;;7.00;83.50;;;;;;5001479;28;20065;-79
2021/11/08 01:49:15;;;;;;;16.58;2.75;;;7.00;83.40;;;;;;5011649;28;20050;-79
2021/11/08 01:51:43;;;;;;;11.40;2.65;;;7.00;83.40;;;;;;5002123;28;20061;-79
2021/11/08 01:54:12;;;;;;;19.88;2.95;;;7.00;83.40;;;;;;5034101;28;20407;-79
2021/11/08 01:56:40;;;;;;;15.75;2.28;;;7.00;83.40;;;;;;5005821;28;20046;-79
2021/11/08 01:59:08;;;;;;;19.35;3.17;;;7.00;83.40;;;;;;5009949;28;20058;-79
2021/11/08 02:01:38;;;;;;;13.70;2.72;;;7.00;83.40;;;;;;5010195;28;20049;-79
2021/11/08 02:04:06;;;;;;;20.50;2.92;;;6.90;83.50;;;;;;5004676;28;20046;-78
2021/11/08 02:06:34;;;;;;;17.73;2.58;;;6.80;83.60;;;;;;5011195;28;20396;-78
2021/11/08 02:09:04;;;;;;;14.38;2.20;;;6.70;83.70;;;;;;5011243;28;20052;-79
2021/11/08 02:11:35;;;;;;;15.80;2.67;;;6.70;83.80;;;;;;5026526;28;20057;-79
2021/11/08 02:14:04;;;;;;;8.35;2.00;;;6.70;84.00;;;;;;5001596;28;20506;-80
2021/11/08 02:16:32;;;;;;;17.65;2.67;;;6.60;84.10;;;;;;5033790;28;20049;-79
2021/11/08 02:19:02;;;;;;;11.25;2.60;;;6.60;84.30;;;;;;4999869;28;20050;-80
2021/11/08 02:21:30;;;;;;;15.23;2.35;;;6.40;84.40;;;;;;5000487;28;20052;-79
2021/11/08 02:23:59;;;;;;;16.70;2.50;;;6.30;84.50;;;;;;5010991;28;20053;-79
2021/11/08 02:26:27;;;;;;;22.50;2.67;;;6.30;84.70;;;;;;5009970;28;20053;-79
2021/11/08 02:28:54;;;;;;;17.23;3.10;;;6.20;84.80;;;;;;5000360;28;20389;-80
2021/11/08 02:31:23;;;;;;;17.02;2.45;;;6.10;84.90;;;;;;5001371;28;20048;-80
2021/11/08 02:33:53;;;;;;;20.42;2.85;;;6.10;85.10;;;;;;5016926;28;20518;-79
2021/11/08 02:36:21;;;;;;;15.23;1.85;;;6.00;85.40;;;;;;5000763;28;20405;-80
2021/11/08 02:38:53;;;;;;;11.45;2.25;;;6.00;85.50;;;;;;5000088;28;20503;-80
2021/11/08 02:41:21;;;;;;;12.27;2.15;;;6.00;85.60;;;;;;5002626;28;20045;-79
2021/11/08 02:43:49;;;;;;;14.85;2.90;;;6.00;85.70;;;;;;5009784;28;20054;-79
2021/11/08 02:46:20;;;;;;;20.42;3.28;;;6.00;85.70;;;;;;5031696;28;20050;-79
2021/11/08 02:48:49;;;;;;;12.82;2.10;;;5.90;85.80;;;;;;5000489;28;20097;-79
2021/11/08 02:51:22;;;;;;;18.77;2.53;;;6.00;85.90;;;;;;5000906;28;20047;-79
2021/11/08 02:53:55;;;;;;;21.47;2.57;;;6.00;85.90;;;;;;5018434;28;20046;-79
2021/11/08 02:56:23;;;;;;;15.65;2.28;;;6.00;85.80;;;;;;5018524;28;20364;-80
2021/11/08 02:58:50;;;;;;;19.55;2.50;;;6.00;85.80;;;;;;5019132;28;20046;-79
2021/11/08 03:01:21;;;;;;;13.85;2.60;;;6.00;85.80;;;;;;5038364;28;20038;-79
2021/11/08 03:03:56;;;;;;;15.63;2.17;;;6.00;85.90;;;;;;5017378;28;20065;-79
2021/11/08 03:08:54;;;;;;;18.20;2.40;;;6.00;86.00;;;;;;5015990;28;20414;-79
2021/11/08 03:11:23;;;;;;;11.05;2.17;;;6.10;85.90;;;;;;5016685;28;20050;-80
2021/11/08 03:14:06;;;;;;;11.63;2.35;;;6.10;85.80;;;;;;5015601;28;20046;-80
2021/11/08 03:16:42;;;;;;;12.13;2.33;;;6.10;85.80;;;;;;5017060;28;20049;-80
2021/11/08 03:21:45;;;;;;;16.70;2.28;;;6.00;85.80;;;;;;5015308;28;20595;-80
2021/11/08 03:24:19;;;;;;;21.67;2.55;;;6.00;86.10;;;;;;5014677;28;20522;-79
2021/11/08 03:26:56;;;;;;;19.63;2.50;;;6.00;86.10;;;;;;5017231;28;20042;-79
2021/11/08 03:29:24;;;;;;;15.32;2.47;;;6.00;86.20;;;;;;5015534;28;20052;-79
2021/11/08 03:31:51;;;;;;;13.65;2.70;;;6.00;86.10;;;;;;4999529;28;20054;-79
2021/11/08 03:34:20;;;;;;;15.55;2.40;;;5.90;86.20;;;;;;5017259;28;20076;-78
2021/11/08 03:36:50;;;;;;;18.00;2.50;;;5.80;86.30;;;;;;5006435;28;20064;-80
2021/11/08 03:39:19;;;;;;;22.08;2.70;;;5.80;86.40;;;;;;5014637;28;20038;-80
2021/11/08 03:41:46;;;;;;;12.98;2.30;;;5.70;86.50;;;;;;5017029;28;20041;-79
2021/11/08 03:44:14;;;;;;;12.98;2.58;;;5.70;86.60;;;;;;5016388;28;20050;-79
2021/11/08 03:46:42;;;;;;;17.98;2.67;;;5.60;86.70;;;;;;5006788;28;20052;-79
2021/11/08 03:49:09;;;;;;;16.10;2.53;;;5.60;86.90;;;;;;5007904;28;20046;-79
2021/11/08 03:51:37;;;;;;;11.35;2.72;;;5.50;86.90;;;;;;5014531;28;20365;-79
2021/11/08 03:54:06;;;;;;;15.88;2.90;;;5.40;87.10;;;;;;5017280;28;20048;-79
2021/11/08 03:56:34;;;;;;;20.63;2.88;;;5.30;87.20;;;;;;5016266;28;20057;-79
2021/11/08 03:59:02;;;;;;;20.38;3.03;;;5.20;87.40;;;;;;5008420;28;20050;-80
2021/11/08 04:01:34;;;;;;;14.52;2.88;;;5.10;87.50;;;;;;5018270;28;20050;-79
2021/11/08 04:04:04;;;;;;;14.82;2.70;;;5.00;87.70;;;;;;5013809;28;20050;-79
2021/11/08 04:06:34;;;;;;;18.17;2.80;;;4.90;87.80;;;;;;5001647;28;20067;-79
2021/11/08 04:09:06;;;;;;;24.92;3.30;;;4.80;87.90;;;;;;5004698;28;20475;-79
2021/11/08 04:11:35;;;;;;;13.80;2.47;;;4.80;88.10;;;;;;5002995;28;20507;-79
2021/11/08 04:14:03;;;;;;;12.43;2.60;;;4.70;88.20;;;;;;5004208;28;20042;-79
2021/11/08 04:16:33;;;;;;;14.70;3.22;;;4.70;88.40;;;;;;5004393;28;20061;-79
2021/11/08 04:19:03;;;;;;;15.77;2.97;;;4.80;88.50;;;;;;5013509;28;20068;-80
2021/11/08 04:21:33;;;;;;;17.15;3.33;;;4.80;88.50;;;;;;5013542;28;20046;-80
2021/11/08 04:24:00;;;;;;;17.13;2.72;;;4.90;88.50;;;;;;5003692;28;20038;-79
2021/11/08 04:26:29;;;;;;;14.27;3.10;;;5.00;88.50;;;;;;4994786;28;20061;-79
2021/11/08 04:29:02;;;;;;;17.75;2.92;;;5.20;88.40;;;;;;4996196;28;20058;-80
2021/11/08 04:31:35;;;;;;;24.67;3.70;;;5.30;88.20;;;;;;4975324;28;20056;-80
2021/11/08 04:45:08;;;;;;;18.10;2.80;;;5.70;87.60;;;;;;5009532;28;20050;-79
2021/11/08 04:50:28;;;;;;;12.25;2.50;;;5.90;87.50;;;;;;5013831;28;20071;-79
2021/11/08 04:53:23;;;;;;;16.83;2.63;;;6.10;87.40;;;;;;5010927;28;20046;-79
2021/11/08 05:24:00;;;;;;;20.58;2.63;;;6.80;86.00;;;;;;4994106;28;20381;-80
2021/11/08 05:31:51;;;;;;;11.50;2.55;;;6.80;85.20;;;;;;4991108;28;20069;-80
2021/11/08 05:34:19;;;;;;;11.70;2.42;;;6.80;85.10;;;;;;4991477;28;20405;-80
2021/11/08 05:36:47;;;;;;;17.05;3.15;;;6.80;85.00;;;;;;4991161;28;20046;-80
2021/11/08 05:39:15;;;;;;;21.35;3.05;;;6.80;85.10;;;;;;4991319;28;20046;-80
2021/11/08 05:41:45;;;;;;;20.33;3.28;;;6.80;85.20;;;;;;4991342;28;20535;-80
2021/11/08 05:44:13;;;;;;;21.30;2.92;;;6.80;85.20;;;;;;4991144;28;20061;-80
2021/11/08 05:46:41;;;;;;;9.57;2.33;;;6.80;85.30;;;;;;4991102;28;20057;-80
2021/11/08 05:49:08;;;;;;;16.73;2.92;;;6.80;85.30;;;;;;4989873;28;20053;-80
2021/11/08 05:51:36;;;;;;;16.02;2.33;;;6.80;85.30;;;;;;4957614;28;20419;-79
2021/11/08 05:54:04;;;;;;;15.60;2.80;;;6.80;85.30;;;;;;4989750;28;20058;-81
2021/11/08 05:56:55;;;;;;;18.80;2.90;;;6.80;85.30;;;;;;4989869;28;20051;-80
2021/11/08 06:49:30;;;;;;;15.80;3.70;;;6.70;86.00;;;;;;5009384;28;20042;-80
2021/11/08 06:51:58;;;;;;;11.30;2.88;;;6.70;86.00;;;;;;5001287;28;20034;-80
2021/11/08 06:54:28;;;;;;;16.88;3.25;;;6.70;86.10;;;;;;5010371;28;20050;-80
2021/11/08 06:57:10;;;;;;;13.40;2.85;;;6.70;86.10;;;;;;5004193;28;20042;-81
2021/11/08 06:59:39;;;;;;;19.10;3.22;;;6.70;86.20;;;;;;5010785;28;20511;-80
2021/11/08 07:02:08;;;;;;;11.43;2.90;;;6.70;86.20;;;;;;5010284;28;20068;-82
2021/11/08 07:04:36;;;;;;;14.48;3.97;;;6.70;86.20;;;;;;5026356;28;20038;-84
2021/11/08 07:07:05;;;;;;;15.10;4.50;;;6.70;86.20;;;;;;5011608;28;20042;-81
2021/11/08 07:09:33;;;;;;;13.85;3.50;;;6.70;86.30;;;;;;4986938;28;20515;-79
2021/11/08 07:12:02;;;;;;;20.30;4.53;;;6.70;86.30;;;;;;5000505;28;20049;-79
2021/11/08 07:14:30;;;;;;;16.42;3.60;;;6.70;86.30;;;;;;5010866;28;20046;-78
2021/11/08 07:16:58;;;;;;;21.40;3.95;;;6.70;86.30;;;;;;5009947;28;20046;-80
2021/11/08 07:19:25;;;;;;;16.10;3.55;;;6.70;86.40;;;;;;5012692;28;20050;-80
2021/11/08 07:21:54;;;;;;;15.43;3.20;;;6.60;86.40;;;;;;5010817;28;20045;-81
2021/11/08 07:24:21;;;;;;;12.60;3.28;;;6.60;86.50;;;;;;5010316;28;20061;-81
2021/11/08 07:26:49;;;;;;;18.95;3.65;;;6.60;86.50;;;;;;5010699;28;20046;-80
2021/11/08 07:29:19;;;;;;;13.10;3.33;;;6.60;86.60;;;;;;5010775;28;20042;-82
2021/11/08 07:31:47;;;;;;;13.25;3.03;;;6.60;86.60;;;;;;4985488;28;20038;-82
2021/11/08 07:34:15;;;;;;;17.42;3.60;;;6.60;86.60;;;;;;5024704;28;20507;-83
2021/11/08 07:36:42;;;;;;;13.13;3.45;;;6.60;86.60;;;;;;5015781;28;20053;-82
2021/11/08 07:39:10;;;;;;;14.00;3.83;;;6.60;86.70;;;;;;5011723;28;20057;-82
2021/11/08 07:41:38;;;;;;;17.65;3.55;;;6.60;86.60;;;;;;5014268;28;20517;-82
2021/11/08 07:44:08;;;;;;;19.17;3.50;;;6.70;86.60;;;;;;5014191;28;20057;-81
2021/11/08 07:46:36;;;;;;;15.65;3.75;;;6.70;86.60;;;;;;5013793;28;20057;-79
2021/11/08 07:49:04;;;;;;;16.75;3.65;;;6.70;86.70;;;;;;5006059;28;20045;-81
2021/11/08 07:51:32;;;;;;;15.43;3.50;;;6.70;86.70;;;;;;5010380;28;20042;-81
2021/11/08 07:53:59;;;;;;;16.80;3.55;;;6.80;86.70;;;;;;5014534;28;20042;-80
2021/11/08 07:56:27;;;;;;;13.52;4.13;;;6.80;86.70;;;;;;5018224;28;20054;-80
2021/11/08 07:58:54;;;;;;;10.43;3.85;;;6.80;86.60;;;;;;5014621;28;20050;-80
2021/11/08 08:01:22;;;;;;;19.73;3.97;;;6.90;86.60;;;;;;5011014;28;20053;-81
2021/11/08 08:03:50;;;;;;;14.05;3.88;;;6.90;86.50;;;;;;4985920;28;20062;-80
2021/11/08 08:06:18;;;;;;;11.02;3.33;;;6.90;86.50;;;;;;5004938;28;20125;-81
2021/11/08 08:08:49;;;;;;;12.80;3.83;;;6.90;86.40;;;;;;5013654;28;20065;-81
2021/11/08 08:11:19;;;;;;;19.23;3.72;;;6.90;86.40;;;;;;4986837;28;20046;-81
2021/11/08 08:13:47;;;;;;;16.70;3.90;;;7.00;86.40;;;;;;5007610;28;20046;-79
2021/11/08 08:16:18;;;;;;;16.15;3.75;;;6.90;86.40;;;;;;5013210;28;20391;-80
2021/11/08 08:18:48;;;;;;;19.40;3.58;;;6.90;86.30;;;;;;5003472;28;20539;-80
2021/11/08 08:21:17;;;;;;;18.13;3.72;;;6.90;86.30;;;;;;5001042;28;20043;-80
2021/11/08 08:23:54;;;;;;;21.85;4.13;;;6.90;86.30;;;;;;5009525;28;20053;-80
2021/11/08 08:26:24;;;;;;;19.10;3.70;;;6.90;86.30;;;;;;5029122;28;20212;-81
2021/11/08 08:28:52;;;;;;;18.25;4.05;;;6.90;86.30;;;;;;5025676;28;20041;-81
2021/11/08 08:31:20;;;;;;;17.95;3.40;;;6.80;86.20;;;;;;5012249;28;20061;-80
2021/11/08 08:33:49;;;;;;;11.70;3.13;;;6.90;86.20;;;;;;5001351;28;20039;-79
2021/11/08 08:36:16;;;;;;;16.67;3.60;;;6.90;86.20;;;;;;5002533;28;20046;-79
2021/11/08 08:38:44;;;;;;;16.85;3.92;;;7.00;86.10;;;;;;5003905;28;20382;-80
2021/11/08 08:41:11;;;;;;;13.38;3.70;;;7.00;86.10;;;;;;5014688;28;20080;-81
2021/11/08 08:43:39;;;;;;;13.52;3.47;;;7.00;86.00;;;;;;5013325;28;20148;-82
2021/11/08 08:46:07;;;;;;;12.93;3.75;;;7.00;86.00;;;;;;5011033;28;20046;-81
2021/11/08 08:48:34;;;;;;;14.73;3.33;;;7.10;86.10;;;;;;5012140;28;20054;-81
2021/11/08 08:51:03;;;;;;;13.95;3.30;;;7.20;86.10;;;;;;5011036;28;20042;-81
2021/11/08 08:53:31;;;;;;;11.57;3.35;;;7.30;86.10;;;;;;5011001;28;20060;-80
2021/11/08 08:56:21;;;;;;;14.35;3.67;;;7.30;85.90;;;;;;5015814;28;20049;-81
2021/11/08 08:58:54;;;;;;;18.08;3.97;;;7.40;85.80;;;;;;4985468;28;20049;-81
2021/11/08 09:01:23;;;;;;;;;;;7.60;85.70;;;;;;5012506;28;20064;-81
2021/11/08 09:03:53;;;;;;;16.42;3.58;;;7.70;85.60;;;;;;5001045;28;19921;-81
2021/11/08 09:06:20;;;;;;;15.88;4.03;;;7.70;85.50;;;;;;5008966;28;20484;-81
2021/11/08 09:08:48;;;;;;;21.13;4.03;;;7.80;85.30;;;;;;5010950;28;20046;-81
2021/11/08 09:11:16;;;;;;;13.30;3.92;;;7.90;85.10;;;;;;5001463;28;20058;-81
2021/11/08 09:13:45;;;;;;;19.15;4.05;;;8.00;85.00;;;;;;5012684;28;20488;-81
2021/11/08 09:16:13;;;;;;;19.55;3.75;;;8.10;84.80;;;;;;5011464;28;20041;-80
2021/11/08 09:18:51;;;;;;;18.17;4.00;;;8.20;84.60;;;;;;5026624;28;20058;-81
2021/11/08 09:21:21;;;;;;;15.48;3.30;;;8.30;84.40;;;;;;4999136;28;20050;-81
2021/11/08 09:23:50;;;;;;;15.25;3.22;;;8.30;84.20;;;;;;5002785;28;20045;-81
2021/11/08 09:26:19;;;;;;;15.90;3.80;;;8.50;84.00;;;;;;5002149;28;20372;-81
2021/11/08 09:28:47;;;;;;;16.50;3.53;;;8.60;83.90;;;;;;5002267;28;20046;-81
2021/11/08 09:31:15;;;;;;;13.57;3.70;;;8.70;83.70;;;;;;5002343;28;20498;-81
2021/11/08 09:33:43;;;;;;;11.23;3.00;;;8.80;83.40;;;;;;5012084;28;20391;-81
2021/11/08 09:36:13;;;;;;;13.18;2.90;;;8.90;83.20;;;;;;5002540;28;20522;-81
2021/11/08 09:38:50;;;;;;;16.15;2.95;;;8.90;83.10;;;;;;5003576;28;20045;-81
2021/11/08 09:41:20;;;;;;;19.65;3.38;;;9.00;83.00;;;;;;5003043;28;20061;-81
2021/11/08 09:43:52;;;;;;;20.30;2.25;;;9.00;82.90;;;;;;5009726;28;20045;-81
2021/11/08 09:46:22;;;;;;;15.27;2.47;;;9.00;82.70;;;;;;5010084;28;20054;-81
2021/11/08 09:48:51;;;;;;;17.55;2.90;;;9.00;82.50;;;;;;5009761;28;20046;-81
2021/11/08 09:51:20;;;;;;;18.13;3.63;;;9.00;82.60;;;;;;5009365;28;20038;-81
2021/11/08 09:53:47;;;;;;;16.67;3.53;;;8.90;82.60;;;;;;5009224;28;20395;-81
2021/11/08 09:56:15;;;;;;;10.75;2.95;;;8.90;82.60;;;;;;5010620;28;20475;-80
2021/11/08 09:58:47;;;;;;;14.60;3.20;;;8.90;82.60;;;;;;5008874;28;20056;-82
2021/11/08 10:01:20;;;;;;;14.68;3.00;;;9.00;82.60;;;;;;5010878;28;20042;-81
2021/11/08 10:03:49;;;;;;;13.10;2.78;;;9.10;82.30;;;;;;5009739;28;20403;-80
2021/11/08 10:06:19;;;;;;;16.52;3.42;;;9.30;82.30;;;;;;5013110;28;20034;-81
2021/11/08 10:08:53;;;;;;;18.08;3.30;;;9.50;82.30;;;;;;5010220;28;20042;-81
2021/11/08 10:11:21;;;;;;;17.25;2.88;;;9.80;81.60;;;;;;5011778;28;20057;-82
2021/11/08 10:13:50;;;;;;;8.82;2.63;;;10.00;81.20;;;;;;5012014;28;20045;-82
2021/11/08 10:16:26;;;;;;;20.00;3.00;;;10.20;80.90;;;;;;5009974;28;20060;-82
2021/11/08 10:18:56;;;;;;;14.18;2.65;;;10.40;80.40;;;;;;5008829;28;20038;-82
2021/11/08 10:21:30;;;;;;;19.52;3.03;;;10.50;79.80;;;;;;5011315;28;20527;-81
2021/11/08 10:24:01;;;;;;;13.27;2.70;;;10.50;79.80;;;;;;5010194;28;20046;-80
2021/11/08 10:26:33;;;;;;;13.25;2.92;;;10.50;79.80;;;;;;5000982;28;20042;-81
2021/11/08 10:29:12;;;;;;;15.55;3.30;;;10.60;79.70;;;;;;5015495;28;20054;-81
2021/11/08 10:31:47;;;;;;;15.85;2.80;;;10.60;79.70;;;;;;4999870;28;20050;-81
2021/11/08 10:34:17;;;;;;;15.00;2.22;;;10.60;79.50;;;;;;5007256;28;20514;-81
2021/11/08 10:36:46;;;;;;;12.18;2.72;;;10.60;79.60;;;;;;5002151;28;20511;-80
2021/11/08 10:39:15;;;;;;;12.73;2.92;;;10.60;79.30;;;;;;4999597;28;20042;-82
2021/11/08 10:41:45;;;;;;;20.88;3.28;;;10.70;79.50;;;;;;4998810;28;20045;-81
2021/11/08 10:44:15;;;;;;;14.95;2.67;;;10.80;79.30;;;;;;5011264;28;20054;-82
2021/11/08 10:46:48;;;;;;;18.75;3.28;;;10.80;79.20;;;;;;5010143;28;20049;-81
2021/11/08 10:49:21;;;;;;;12.45;2.40;;;10.80;78.90;;;;;;5009812;28;20510;-82
2021/11/08 10:51:55;;;;;;;15.52;2.92;;;10.80;78.90;;;;;;5009594;28;20046;-81
2021/11/08 10:54:25;;;;;;;13.02;3.03;;;10.80;78.80;;;;;;5009196;28;20053;-81
2021/11/08 10:57:23;;;;;;;13.98;2.83;;;10.80;78.80;;;;;;5006587;28;20054;-81
2021/11/08 10:59:53;;;;;;;18.35;3.00;;;10.80;78.90;;;;;;4992513;28;20053;-82
2021/11/08 11:02:25;;;;;;;13.52;2.50;;;10.90;78.90;;;;;;5007389;28;20530;-81
2021/11/08 11:04:57;;;;;;;15.70;2.90;;;10.90;78.90;;;;;;5009835;28;20058;-82
2021/11/08 11:07:28;;;;;;;18.33;2.78;;;10.90;78.70;;;;;;5010850;28;20046;-82
2021/11/08 11:10:04;;;;;;;17.33;2.95;;;10.90;78.80;;;;;;4999980;28;20217;-82
2021/11/08 11:12:33;;;;;;;15.60;2.70;;;10.90;78.80;;;;;;5001554;28;20062;-81
2021/11/08 11:15:09;;;;;;;19.73;2.80;;;10.80;78.80;;;;;;5003943;28;20097;-81
2021/11/08 11:17:44;;;;;;;10.98;2.22;;;10.80;78.80;;;;;;5002869;28;20042;-81
2021/11/08 11:20:17;;;;;;;18.25;2.58;;;10.70;79.00;;;;;;5014845;28;20053;-82
2021/11/08 11:23:05;;;;;;;19.13;3.45;;;10.60;79.30;;;;;;5012325;28;20049;-82
2021/11/08 11:25:37;;;;;;;15.88;2.97;;;10.50;79.50;;;;;;5012604;28;20384;-82
2021/11/08 11:28:07;;;;;;;26.23;3.10;;;10.50;79.70;;;;;;5014747;28;20045;-82
2021/11/08 11:30:41;;;;;;;13.48;2.58;;;10.60;79.60;;;;;;5029819;28;20049;-81
2021/11/08 11:33:14;;;;;;;16.45;3.08;;;10.70;79.70;;;;;;5015766;28;20046;-82
2021/11/08 11:35:50;;;;;;;;;;;10.80;79.50;;;;;;5014259;28;20422;-82
2021/11/08 11:38:28;;;;;;;16.40;3.28;;;10.90;79.50;;;;;;5029900;28;19921;-82
2021/11/08 11:41:01;;;;;;;10.90;2.80;;;11.10;79.40;;;;;;5014456;28;20038;-82
2021/11/08 11:43:35;;;;;;;16.88;3.38;;;11.30;78.80;;;;;;5013855;28;20054;-82
2021/11/08 11:46:07;;;;;;;9.70;2.53;;;11.30;78.80;;;;;;5035915;28;20041;-81
2021/11/08 11:48:37;;;;;;;17.83;3.25;;;11.40;78.60;;;;;;5009019;28;20046;-82
2021/11/08 11:51:25;;;;;;;16.70;2.53;;;11.40;78.40;;;;;;5036628;28;20495;-82
2021/11/08 11:53:54;;;;;;;10.68;2.47;;;11.50;78.50;;;;;;5013757;28;20056;-82
2021/11/08 11:56:25;;;;;;;15.48;2.45;;;11.60;78.30;;;;;;5035427;28;20066;-82
2021/11/08 11:58:53;;;;;;;19.67;2.70;;;11.70;78.30;;;;;;5003147;28;20073;-82
2021/11/08 12:01:25;;;;;;;22.48;3.13;;;11.70;78.40;;;;;;5011896;28;20045;-82
2021/11/08 12:03:53;;;;;;;13.85;3.15;;;11.80;78.40;;;;;;5004582;28;20062;-83
2021/11/08 12:06:28;;;;;;;13.65;3.00;;;11.80;78.10;;;;;;5027152;28;20469;-82
2021/11/08 12:08:59;;;;;;;21.23;3.70;;;11.90;78.00;;;;;;5014042;28;20049;-82
2021/11/08 12:11:29;;;;;;;14.88;3.83;;;11.80;77.70;;;;;;5028307;28;20061;-82
2021/11/08 12:14:01;;;;;;;19.02;4.47;;;11.80;77.80;;;;;;5013065;28;20065;-82
2021/11/08 12:16:29;;;;;;;14.32;3.13;;;11.80;77.90;;;;;;5013801;28;20056;-82
2021/11/08 12:18:59;;;;;;;21.88;3.65;;;11.80;77.90;;;;;;5012561;28;20407;-83
2021/11/08 12:21:32;;;;;;;13.90;2.90;;;12.00;78.20;;;;;;5012969;28;20062;-82
2021/11/08 12:24:01;;;;;;;;;;;12.30;77.90;;;;;;5011346;28;20546;-82
2021/11/08 12:26:31;;;;;;;15.73;3.00;;;12.50;77.00;;;;;;5013393;28;19929;-82
2021/11/08 12:29:12;;;;;;;14.88;3.58;;;12.70;76.80;;;;;;5012057;28;20050;-82
2021/11/08 12:31:44;;;;;;;10.25;3.45;;;12.80;76.70;;;;;;5012231;28;20065;-82
2021/11/08 12:34:20;;;;;;;15.00;3.75;;;13.00;76.60;;;;;;5013391;28;20041;-83
2021/11/08 12:37:00;;;;;;;14.85;3.25;;;13.50;76.20;;;;;;5014248;28;20081;-80
2021/11/08 12:39:29;;;;;;;17.13;3.17;;;14.00;75.00;;;;;;5001216;28;20065;-80
2021/11/08 12:42:01;;;;;;;11.52;2.50;;;14.30;73.50;;;;;;5027886;28;20045;-84
2021/11/08 12:44:36;;;;;;;12.80;3.25;;;14.40;73.30;;;;;;5032547;28;20061;-85
2021/11/08 12:47:06;;;;;;;12.02;2.83;;;14.60;72.10;;;;;;5006026;28;20488;-83
2021/11/08 12:49:38;;;;;;;14.68;2.67;;;14.60;71.80;;;;;;5009396;28;20492;-83
2021/11/08 12:52:06;;;;;;;10.85;2.50;;;14.70;72.10;;;;;;5011315;28;20360;-83
2021/11/08 12:54:45;;;;;;;11.60;2.50;;;14.70;71.90;;;;;;5015429;28;20053;-83
2021/11/08 12:57:14;;;;;;;15.65;2.85;;;14.60;71.80;;;;;;5012802;28;20072;-83
2021/11/08 13:00:16;;;;;;;11.27;2.75;;;14.50;71.80;;;;;;5013333;28;20061;-83
2021/11/08 13:03:02;;;;;;;17.23;2.55;;;14.30;71.90;;;;;;5028094;28;20496;-83
2021/11/08 13:05:33;;;;;;;19.20;2.90;;;14.30;72.60;;;;;;5004120;28;20053;-83
2021/11/08 13:08:01;;;;;;;10.98;2.40;;;14.60;72.80;;;;;;5011751;28;20050;-83
2021/11/08 13:10:33;;;;;;;10.13;2.42;;;14.80;72.30;;;;;;5011020;28;20049;-83
2021/11/08 13:13:03;;;;;;;9.80;2.92;;;14.80;71.00;;;;;;5010168;28;20049;-83
2021/11/08 13:15:32;;;;;;;13.30;3.03;;;14.70;71.60;;;;;;5026332;28;20069;-83
2021/11/08 13:18:06;;;;;;;8.18;2.20;;;14.70;71.90;;;;;;5011389;28;20050;-84
2021/11/08 13:20:37;;;;;;;17.50;3.63;;;14.70;71.90;;;;;;5006403;28;20045;-83
2021/11/08 13:23:13;;;;;;;15.18;2.50;;;14.60;72.10;;;;;;5009017;28;20050;-83
2021/11/08 13:25:48;;;;;;;12.85;2.55;;;14.40;72.10;;;;;;5010680;28;20046;-83
2021/11/08 13:28:21;;;;;;;11.82;2.70;;;14.30;71.90;;;;;;5011173;28;20388;-83
2021/11/08 13:30:55;;;;;;;12.05;3.05;;;14.00;72.40;;;;;;5028622;28;20049;-83
2021/11/08 13:33:24;;;;;;;12.63;2.50;;;13.90;73.00;;;;;;5009231;28;20057;-83
2021/11/08 13:35:54;;;;;;;14.32;3.10;;;13.80;73.50;;;;;;5010326;28;20132;-83
2021/11/08 13:38:32;;;;;;;11.27;2.80;;;13.60;73.80;;;;;;5010445;28;20060;-83
2021/11/08 13:41:30;;;;;;;20.42;3.22;;;13.50;74.10;;;;;;5010375;28;20064;-83
2021/11/08 13:44:07;;;;;;;15.40;3.35;;;13.30;74.60;;;;;;4987485;28;20052;-82
2021/11/08 13:46:55;;;;;;;12.70;2.97;;;13.30;75.00;;;;;;5009530;28;20037;-83
2021/11/08 13:49:25;;;;;;;11.77;2.78;;;13.20;75.30;;;;;;5007992;28;20483;-84
2021/11/08 13:51:55;;;;;;;13.77;3.17;;;13.20;75.50;;;;;;5012448;28;20053;-83
2021/11/08 13:54:29;;;;;;;17.98;2.88;;;13.10;75.70;;;;;;5011857;28;20522;-84
2021/11/08 13:57:16;;;;;;;9.93;2.83;;;13.00;76.00;;;;;;5011550;28;20400;-84
2021/11/08 13:59:46;;;;;;;15.20;3.38;;;13.00;76.80;;;;;;5011353;28;20076;-83
2021/11/08 14:02:16;;;;;;;14.95;3.13;;;12.80;77.30;;;;;;5011807;28;20488;-83
2021/11/08 14:04:54;;;;;;;11.48;3.00;;;12.70;78.00;;;;;;5011890;28;20053;-81
2021/11/08 14:07:26;;;;;;;15.05;3.25;;;12.70;78.40;;;;;;5011414;28;20522;-82
2021/11/08 14:09:55;;;;;;;13.40;3.15;;;12.60;79.30;;;;;;5010260;28;20416;-82
2021/11/08 14:12:28;;;;;;;9.68;2.97;;;12.40;79.50;;;;;;5011585;28;20049;-82
2021/11/08 14:14:57;;;;;;;13.63;3.33;;;12.40;79.90;;;;;;5012025;28;20869;-82
2021/11/08 14:17:30;;;;;;;17.52;3.17;;;12.30;80.40;;;;;;5011309;28;20042;-82
2021/11/08 14:20:05;;;;;;;12.02;3.50;;;12.30;80.80;;;;;;5014347;28;20046;-82
2021/11/08 14:22:35;;;;;;;13.75;3.22;;;12.20;81.00;;;;;;5011772;28;20038;-82
2021/11/08 14:25:06;;;;;;;15.73;3.17;;;12.20;81.20;;;;;;5011861;28;20050;-82
2021/11/08 14:27:36;;;;;;;16.88;3.20;;;12.20;81.40;;;;;;5011592;28;20038;-82
2021/11/08 14:30:22;;;;;;;17.23;3.20;;;12.10;81.70;;;;;;5009795;28;20050;-82
2021/11/08 14:32:52;;;;;;;10.20;3.17;;;12.10;81.90;;;;;;5011659;28;20046;-82
2021/11/08 14:35:30;;;;;;;13.05;3.33;;;12.00;82.20;;;;;;5011387;28;20069;-82
2021/11/08 14:40:38;;;;;;;10.13;3.35;;;11.90;82.80;;;;;;4999418;28;20495;-82
2021/11/08 14:43:32;;;;;;;13.77;3.17;;;11.90;83.00;;;;;;5025829;28;20046;-82
2021/11/08 14:46:01;;;;;;;;;;;11.90;83.40;;;;;;5008101;28;20057;-82
2021/11/08 14:48:31;;;;;;;15.85;3.45;;;11.80;83.40;;;;;;5010649;28;19929;-82
2021/11/08 14:51:22;;;;;;;19.35;4.10;;;11.80;83.50;;;;;;5011158;28;20037;-81
2021/11/08 14:53:56;;;;;;;19.13;4.22;;;11.80;83.90;;;;;;5012859;28;20057;-81
2021/11/08 14:56:27;;;;;;;15.32;4.63;;;11.80;84.20;;;;;;5013763;28;20053;-81